Terminal Aerodrome Forecast
Issued by NWS Wilmington, OH

Current Version | Previous Version | Text Only | Print | Product List | Glossary Off
Versions: 1 2 3 4 5 6 7 8 9 10 11 12 13 14 15 16 17 18 19 20 21 22 23

000
FTUS41 KILN 162340
TAFCVG
TAF
KCVG 162340Z 1700/1806 VRB04KT P6SM SCT040 SCT250
     FM170600 16003KT P6SM BKN120
     FM171700 20012KT P6SM VCSH BKN050 BKN150
     FM171900 21012KT P6SM -SHRA VCTS BKN040CB OVC100
     FM180100 25010KT P6SM SCT040 BKN120=

USA.gov is the U.S. government's official web portal to all federal, state and local government web resources and services.